Time;durP1;ratioP1;P1;durP2;ratioP2;P2;SDS_P1;SDS_P2;PMS_P1;PMS_P2;Temp;Humidity;BMP_temperature;BMP_pressure;BME280_temperature;BME280_humidity;BME280_pressure;Samples;Min_cycle;Max_cycle;Signal;HPM_P1;HPM_P2
2021/12/25 00:01:20;;;;;;;17.45;13.73;;;;;;;5.26;100.00;100443.06;5108772;28;20024;-87
2021/12/25 00:03:47;;;;;;;15.88;12.20;;;;;;;5.20;100.00;100432.97;5090852;28;20019;-87
2021/12/25 00:06:12;;;;;;;14.32;12.18;;;;;;;5.21;100.00;100440.72;5110973;28;20051;-86
2021/12/25 00:08:37;;;;;;;15.20;11.77;;;;;;;5.19;100.00;100432.13;5091574;28;20471;-87
2021/12/25 00:11:08;;;;;;;15.98;11.90;;;;;;;5.18;100.00;100438.25;5110572;28;20479;-86
2021/12/25 00:13:35;;;;;;;16.55;13.10;;;;;;;5.19;100.00;100442.56;5100601;28;20023;-87
2021/12/25 00:16:00;;;;;;;15.40;12.40;;;;;;;5.16;100.00;100441.88;5108789;28;20399;-86
2021/12/25 00:18:27;;;;;;;19.42;13.27;;;;;;;5.14;100.00;100443.75;5102944;28;20020;-86
2021/12/25 00:20:52;;;;;;;16.50;12.45;;;;;;;5.13;100.00;100442.06;5109930;28;20471;-86
2021/12/25 00:23:18;;;;;;;16.00;12.75;;;;;;;5.19;100.00;100441.72;5091857;28;20043;-86
2021/12/25 00:25:52;;;;;;;18.25;12.85;;;;;;;5.14;100.00;100447.19;5109805;28;20043;-87
2021/12/25 00:33:51;;;;;;;15.38;12.88;;;;;;;5.07;100.00;100426.78;5108676;28;20384;-86
2021/12/25 00:36:21;;;;;;;15.77;12.65;;;;;;;5.04;100.00;100426.03;5108484;28;20028;-86
2021/12/25 00:38:48;;;;;;;15.30;12.93;;;;;;;5.04;100.00;100427.81;5109834;28;20111;-86
2021/12/25 00:41:16;;;;;;;16.23;12.93;;;;;;;5.08;100.00;100437.13;5109602;28;20050;-86
2021/12/25 00:43:45;;;;;;;17.77;12.93;;;;;;;5.08;100.00;100438.91;5109564;28;20108;-87
2021/12/25 00:46:14;;;;;;;18.52;13.32;;;;;;;5.01;100.00;100434.03;5109672;28;20024;-86
2021/12/25 00:48:39;;;;;;;18.35;13.70;;;;;;;5.00;100.00;100429.75;5109871;28;20340;-86
2021/12/25 00:51:05;;;;;;;18.75;13.50;;;;;;;5.03;100.00;100447.81;5102735;28;20085;-85
2021/12/25 00:53:31;;;;;;;19.67;13.70;;;;;;;5.01;100.00;100454.91;5105920;28;20084;-86
2021/12/25 00:55:56;;;;;;;19.52;14.23;;;;;;;5.03;100.00;100449.59;5110563;28;20023;-86
2021/12/25 00:58:22;;;;;;;19.80;13.70;;;;;;;4.94;100.00;100437.09;5109372;28;20491;-86
2021/12/25 01:00:47;;;;;;;21.35;14.82;;;;;;;4.92;100.00;100439.78;5092302;28;20051;-86
2021/12/25 01:03:13;;;;;;;18.90;14.35;;;;;;;4.95;100.00;100444.81;5109438;28;20062;-86
2021/12/25 01:05:38;;;;;;;20.63;13.98;;;;;;;4.97;100.00;100447.34;5091972;28;20028;-86
2021/12/25 01:08:05;;;;;;;21.00;15.43;;;;;;;4.94;100.00;100437.09;5090052;28;20073;-87
2021/12/25 01:10:33;;;;;;;20.13;15.13;;;;;;;4.94;100.00;100439.69;5088734;28;20027;-86
2021/12/25 01:15:34;;;;;;;22.13;15.80;;;;;;;4.93;100.00;100444.06;5109283;28;20080;-86
2021/12/25 01:18:30;;;;;;;20.63;15.30;;;;;;;4.91;100.00;100432.91;5093008;28;20027;-86
2021/12/25 01:31:11;;;;;;;22.88;17.00;;;;;;;4.92;100.00;100433.72;5113114;28;20078;-85
2021/12/25 01:39:12;;;;;;;23.55;17.33;;;;;;;4.86;100.00;100429.72;5112545;28;20120;-86
2021/12/25 01:42:02;;;;;;;25.80;18.58;;;;;;;4.84;100.00;100426.34;5092139;28;20491;-86
2021/12/25 01:50:00;;;;;;;26.33;18.58;;;;;;;4.88;100.00;100433.06;5080608;28;20391;-86
2021/12/25 01:52:29;;;;;;;26.35;19.48;;;;;;;4.86;100.00;100432.31;5093487;28;20115;-86
2021/12/25 01:55:02;;;;;;;28.52;21.05;;;;;;;4.87;100.00;100430.56;5112783;28;20023;-86
2021/12/25 01:57:28;;;;;;;;;;;;;;;4.95;100.00;100423.97;5094580;28;20123;-86
2021/12/25 01:59:55;;;;;;;33.03;22.40;;;;;;;4.87;100.00;100430.56;5088649;28;19912;-85
2021/12/25 02:02:21;;;;;;;33.03;22.98;;;;;;;4.82;100.00;100427.38;5093833;28;20026;-86
2021/12/25 02:04:46;;;;;;;34.55;23.25;;;;;;;4.84;100.00;100430.72;5113298;28;20099;-86
2021/12/25 02:07:14;;;;;;;32.63;23.63;;;;;;;4.79;100.00;100433.56;5112360;28;20047;-86
2021/12/25 02:09:40;;;;;;;34.03;23.65;;;;;;;4.78;100.00;100431.88;5094598;28;20032;-86
2021/12/25 02:12:30;;;;;;;33.38;24.10;;;;;;;4.80;100.00;100423.97;5113100;28;20032;-86
2021/12/25 02:15:01;;;;;;;32.65;23.48;;;;;;;4.80;100.00;100430.03;5111012;27;20055;-86
2021/12/25 02:17:37;;;;;;;34.50;24.48;;;;;;;4.80;100.00;100429.19;5095660;28;20369;-86
2021/12/25 02:20:29;;;;;;;36.83;26.35;;;;;;;4.77;100.00;100426.75;5092746;28;20042;-86
2021/12/25 02:23:01;;;;;;;38.03;27.15;;;;;;;4.74;100.00;100417.34;5104387;28;20036;-86
2021/12/25 02:25:28;;;;;;;41.90;29.35;;;;;;;4.77;100.00;100427.59;5094131;28;20109;-86
2021/12/25 02:27:54;;;;;;;42.58;29.27;;;;;;;4.73;100.00;100424.34;5112009;28;20352;-86
2021/12/25 02:30:22;;;;;;;42.70;29.25;;;;;;;4.68;100.00;100415.09;5112319;28;20035;-86
2021/12/25 02:32:48;;;;;;;42.72;29.27;;;;;;;4.70;100.00;100418.47;5106656;28;20024;-86
2021/12/25 02:35:18;;;;;;;44.15;30.42;;;;;;;4.67;100.00;100414.25;5111164;28;20026;-86
2021/12/25 02:37:44;;;;;;;41.17;28.33;;;;;;;4.72;100.00;100427.03;5111372;28;20518;-86
2021/12/25 02:40:14;;;;;;;43.03;29.38;;;;;;;4.67;100.00;100424.69;5112544;28;20083;-86
2021/12/25 02:42:40;;;;;;;40.58;26.98;;;;;;;4.68;100.00;100421.16;5111414;28;20360;-86
2021/12/25 02:45:06;;;;;;;37.55;26.77;;;;;;;4.67;100.00;100429.06;5111254;28;20035;-86
2021/12/25 02:47:35;;;;;;;38.63;26.52;;;;;;;4.70;100.00;100434.09;5111223;28;20424;-86
2021/12/25 02:50:01;;;;;;;38.60;26.80;;;;;;;4.67;100.00;100434.28;5085842;28;20031;-86
2021/12/25 02:52:26;;;;;;;37.03;25.73;;;;;;;4.65;100.00;100431.75;5104929;28;20562;-86
2021/12/25 02:54:51;;;;;;;36.13;26.95;;;;;;;4.67;100.00;100434.28;5093664;28;20473;-87
2021/12/25 02:57:17;;;;;;;39.67;26.80;;;;;;;4.59;100.00;100415.63;5092206;28;20080;-86
2021/12/25 02:59:59;;;;;;;35.50;25.77;;;;;;;4.63;100.00;100432.75;5092718;28;20027;-87
2021/12/25 03:02:25;;;;;;;31.27;22.15;;;;;;;4.54;100.00;100418.50;5107456;28;20023;-87
2021/12/25 03:04:50;;;;;;;27.80;20.73;;;;;;;4.56;100.00;100434.03;5108824;28;20024;-86
2021/12/25 03:07:16;;;;;;;27.55;19.92;;;;;;;4.54;100.00;100431.50;5088090;28;20369;-87
2021/12/25 03:09:42;;;;;;;30.65;20.13;;;;;;;4.52;100.00;100437.75;5072157;28;20038;-87
2021/12/25 03:12:13;;;;;;;29.10;20.95;;;;;;;4.51;100.00;100443.88;5090907;28;20416;-87
2021/12/25 03:15:02;;;;;;;24.77;19.25;;;;;;;4.45;100.00;100442.44;5108129;28;20643;-87
2021/12/25 03:17:27;;;;;;;24.27;18.30;;;;;;;4.43;100.00;100451.28;5110226;28;20123;-87
2021/12/25 03:19:55;;;;;;;23.67;18.23;;;;;;;4.37;100.00;100448.06;5111541;28;20391;-87
2021/12/25 03:22:21;;;;;;;24.15;18.27;;;;;;;4.35;100.00;100460.31;5085651;28;20039;-86
2021/12/25 03:24:46;;;;;;;24.30;18.05;;;;;;;4.28;100.00;100452.94;5111348;28;20027;-87
2021/12/25 03:27:14;;;;;;;24.45;18.45;;;;;;;4.23;99.77;100455.78;5111226;28;20031;-87
2021/12/25 03:29:42;;;;;;;25.75;19.20;;;;;;;4.18;100.00;100463.00;5093637;28;20027;-87
2021/12/25 03:32:08;;;;;;;26.30;18.67;;;;;;;4.18;99.36;100462.16;5110908;28;20024;-86
2021/12/25 03:34:34;;;;;;;27.38;18.88;;;;;;;4.16;99.56;100472.66;5111234;28;20024;-87
2021/12/25 03:37:00;;;;;;;27.23;19.23;;;;;;;4.08;99.32;100467.88;5111772;28;20386;-87
2021/12/25 03:39:26;;;;;;;25.52;17.88;;;;;;;4.04;99.24;100465.53;5103690;28;20604;-87
2021/12/25 03:41:51;;;;;;;28.40;19.67;;;;;;;4.04;99.04;100475.94;5110732;28;20020;-87
2021/12/25 03:44:17;;;;;;;27.30;19.35;;;;;;;3.99;99.20;100481.34;5110888;28;20149;-87
2021/12/25 03:46:43;;;;;;;28.13;19.15;;;;;;;3.86;99.58;100461.25;5110318;28;20038;-86
2021/12/25 03:49:26;;;;;;;26.92;18.50;;;;;;;3.85;99.14;100470.00;5111205;28;20535;-86
2021/12/25 03:57:44;;;;;;;25.17;16.65;;;;;;;3.76;99.20;100472.16;5092792;28;20767;-86
2021/12/25 04:00:16;;;;;;;24.73;17.58;;;;;;;3.75;98.88;100486.09;5089806;28;20102;-86
2021/12/25 04:02:53;;;;;;;23.80;16.80;;;;;;;3.71;99.32;100479.38;5071939;28;20449;-86
2021/12/25 04:05:27;;;;;;;23.20;17.00;;;;;;;3.69;99.05;100480.38;5089989;28;20028;-87
2021/12/25 04:08:02;;;;;;;22.73;16.83;;;;;;;3.67;99.57;100482.22;5089517;28;20024;-86
2021/12/25 04:10:33;;;;;;;23.55;17.08;;;;;;;3.53;99.12;100479.44;5071050;28;20063;-86
2021/12/25 04:12:59;;;;;;;24.05;18.38;;;;;;;3.58;99.12;100493.06;5092049;28;20032;-85
2021/12/25 04:15:25;;;;;;;28.15;18.75;;;;;;;3.53;99.43;100490.69;5101160;28;20076;-86
2021/12/25 04:17:50;;;;;;;24.20;17.60;;;;;;;3.50;99.32;100496.06;5092133;28;20106;-86
2021/12/25 04:20:17;;;;;;;22.85;17.17;;;;;;;3.47;98.91;100504.00;5091307;28;20403;-86
2021/12/25 04:22:51;;;;;;;24.27;18.40;;;;;;;3.43;99.37;100497.28;5091656;28;20043;-86
2021/12/25 04:25:23;;;;;;;24.50;18.73;;;;;;;3.35;99.17;100502.88;5091834;28;20020;-86
2021/12/25 04:27:48;;;;;;;22.77;17.70;;;;;;;3.36;99.27;100509.75;5110246;28;20054;-86
2021/12/25 04:30:30;;;;;;;23.50;17.40;;;;;;;3.34;98.76;100515.94;5104100;28;20059;-86
2021/12/25 04:50:23;;;;;;;27.77;21.13;;;;;;;3.04;98.42;100547.69;5083208;28;20038;-86
2021/12/25 05:06:10;;;;;;;26.35;21.10;;;;;;;2.67;97.62;100558.13;5106776;28;20035;-86
2021/12/25 05:08:35;;;;;;;26.48;21.85;;;;;;;2.64;97.48;100555.69;5109079;28;20035;-87
2021/12/25 05:11:01;;;;;;;26.50;20.73;;;;;;;2.59;96.99;100560.25;5113581;28;20039;-87
2021/12/25 05:13:26;;;;;;;26.83;21.80;;;;;;;2.53;97.00;100563.13;5095491;28;20066;-87
2021/12/25 05:15:52;;;;;;;29.38;22.38;;;;;;;2.46;97.72;100560.81;5113023;28;20035;-86
2021/12/25 05:18:17;;;;;;;28.45;21.80;;;;;;;2.42;97.45;100561.84;5094294;28;20020;-86
2021/12/25 05:20:43;;;;;;;28.65;22.15;;;;;;;2.38;97.55;100567.22;5110055;28;20036;-81
2021/12/25 05:23:08;;;;;;;28.88;22.08;;;;;;;2.35;97.08;100570.81;5108047;28;20048;-87
2021/12/25 05:25:34;;;;;;;29.90;22.30;;;;;;;2.29;97.02;100565.88;5109046;28;20023;-87
2021/12/25 05:28:01;;;;;;;29.40;21.45;;;;;;;2.25;96.36;100573.88;5095463;28;20040;-86
2021/12/25 05:30:28;;;;;;;28.05;21.90;;;;;;;2.17;96.53;100579.41;5112032;28;20023;-86
2021/12/25 05:32:53;;;;;;;27.38;21.80;;;;;;;2.08;97.04;100572.88;5093306;28;20040;-86
2021/12/25 05:35:18;;;;;;;29.35;21.45;;;;;;;2.04;96.46;100575.69;5105152;28;20040;-86
2021/12/25 05:37:44;;;;;;;30.58;22.13;;;;;;;2.00;97.15;100579.28;5110597;28;20042;-86
2021/12/25 05:40:12;;;;;;;30.45;22.58;;;;;;;1.94;97.21;100575.19;5094270;28;20095;-87
2021/12/25 05:42:37;;;;;;;30.40;22.88;;;;;;;1.93;97.09;100585.66;5074760;28;20027;-87
2021/12/25 05:45:03;;;;;;;27.52;21.23;;;;;;;1.87;97.60;100581.56;5091583;28;20024;-86
2021/12/25 05:47:29;;;;;;;29.95;22.30;;;;;;;1.84;97.19;100590.31;5092819;28;20487;-87
2021/12/25 05:49:54;;;;;;;30.05;22.95;;;;;;;1.79;97.22;100581.88;5100687;27;20019;-86
2021/12/25 05:52:23;;;;;;;28.98;21.77;;;;;;;1.76;97.83;100588.97;5093919;28;20072;-86
2021/12/25 05:54:49;;;;;;;28.58;21.35;;;;;;;1.70;96.91;100582.28;5106371;28;20110;-86
2021/12/25 05:57:14;;;;;;;29.92;22.20;;;;;;;1.67;97.61;100595.38;5108933;28;20103;-86
2021/12/25 05:59:39;;;;;;;28.95;21.83;;;;;;;1.65;97.54;100596.34;5112695;28;20039;-87
2021/12/25 06:02:05;;;;;;;28.45;22.02;;;;;;;1.60;97.71;100598.25;5092855;28;20357;-86
2021/12/25 06:04:30;;;;;;;28.27;21.77;;;;;;;1.58;97.44;100604.34;5111553;28;20139;-86
2021/12/25 06:06:56;;;;;;;29.00;22.13;;;;;;;1.54;98.00;100607.97;5110407;28;20081;-85
2021/12/25 06:09:21;;;;;;;29.77;21.30;;;;;;;1.53;97.67;100610.63;5111949;28;20084;-86
2021/12/25 06:11:47;;;;;;;29.90;22.00;;;;;;;1.44;98.18;100605.81;5102157;28;20035;-86
2021/12/25 06:14:21;;;;;;;29.67;21.00;;;;;;;1.48;98.06;100622.94;5111572;28;20394;-86
2021/12/25 06:16:49;;;;;;;31.33;22.42;;;;;;;1.46;97.63;100619.56;5112620;28;20038;-86
2021/12/25 06:19:15;;;;;;;29.33;21.75;;;;;;;1.42;97.94;100618.84;5111443;28;20015;-87
2021/12/25 06:21:40;;;;;;;29.85;22.40;;;;;;;1.38;98.11;100626.81;5109761;28;20027;-86
2021/12/25 06:24:06;;;;;;;28.60;21.05;;;;;;;1.37;98.11;100620.78;5112440;28;20028;-86
2021/12/25 06:26:36;;;;;;;28.42;20.80;;;;;;;1.35;98.13;100626.94;5111803;28;20125;-86
2021/12/25 06:29:03;;;;;;;28.88;21.13;;;;;;;1.31;97.86;100630.56;5087526;28;20024;-86
2021/12/25 06:31:29;;;;;;;26.23;20.48;;;;;;;1.29;97.79;100627.19;5111435;28;20433;-86
2021/12/25 06:33:57;;;;;;;29.00;21.25;;;;;;;1.25;98.23;100632.50;5093527;28;20048;-86
2021/12/25 06:36:22;;;;;;;26.75;20.05;;;;;;;1.22;98.45;100632.59;5111004;28;20076;-86
2021/12/25 06:38:48;;;;;;;28.73;20.52;;;;;;;1.19;98.55;100637.88;5112393;28;20477;-86
2021/12/25 06:41:14;;;;;;;25.63;19.92;;;;;;;1.16;98.72;100634.56;5092779;28;20027;-86
2021/12/25 06:43:40;;;;;;;27.80;20.13;;;;;;;1.14;98.23;100631.19;5111911;28;20099;-86
2021/12/25 06:46:05;;;;;;;26.38;20.00;;;;;;;1.12;98.33;100636.44;5098174;28;20062;-86
2021/12/25 06:48:31;;;;;;;26.05;19.20;;;;;;;1.10;98.43;100637.41;5072677;28;20193;-86
2021/12/25 06:50:56;;;;;;;24.75;19.52;;;;;;;1.07;98.04;100630.59;5109294;28;20436;-86
2021/12/25 06:53:22;;;;;;;26.58;19.70;;;;;;;1.02;98.30;100629.09;5093627;28;20035;-86
2021/12/25 06:55:47;;;;;;;27.00;19.25;;;;;;;1.03;97.84;100639.38;5093542;28;20030;-86
2021/12/25 06:58:13;;;;;;;28.40;19.98;;;;;;;1.03;98.39;100649.75;5093969;28;20164;-86
2021/12/25 07:00:39;;;;;;;25.48;18.88;;;;;;;0.99;99.14;100640.41;5111909;28;20418;-86
2021/12/25 07:03:04;;;;;;;25.75;18.98;;;;;;;0.96;98.47;100644.84;5105140;28;20020;-86
2021/12/25 07:05:30;;;;;;;27.08;18.90;;;;;;;0.90;99.21;100636.41;5099683;28;20068;-86
2021/12/25 07:07:55;;;;;;;25.90;18.65;;;;;;;0.99;98.89;100663.72;5111623;28;20028;-87
2021/12/25 07:10:22;;;;;;;25.25;18.55;;;;;;;0.98;99.48;100663.78;5110305;28;20020;-86
2021/12/25 07:12:49;;;;;;;24.52;18.17;;;;;;;0.96;99.01;100663.00;5095922;27;20024;-86
2021/12/25 07:15:16;;;;;;;25.42;18.60;;;;;;;0.93;98.55;100667.38;5132282;27;20019;-86
2021/12/25 07:17:45;;;;;;;25.10;19.33;;;;;;;0.93;98.70;100662.19;5131789;27;20023;-86
2021/12/25 07:20:14;;;;;;;26.45;19.02;;;;;;;0.91;99.43;100668.34;5115308;27;20106;-86
2021/12/25 07:22:39;;;;;;;26.52;18.98;;;;;;;0.84;99.46;100661.72;5110651;28;20614;-86
2021/12/25 07:25:07;;;;;;;26.50;19.05;;;;;;;0.89;99.80;100672.75;5110456;28;20050;-86
2021/12/25 07:27:33;;;;;;;26.17;18.77;;;;;;;0.87;98.82;100677.97;5110250;28;20031;-86
2021/12/25 07:29:58;;;;;;;27.10;19.05;;;;;;;0.81;99.38;100672.19;5110332;27;20026;-86
2021/12/25 07:32:23;;;;;;;26.60;19.63;;;;;;;0.85;99.24;100676.34;5110471;28;20027;-86
2021/12/25 07:34:51;;;;;;;27.10;19.50;;;;;;;0.85;98.91;100678.94;5107172;28;20383;-87
2021/12/25 07:37:22;;;;;;;24.27;17.67;;;;;;;0.75;99.16;100677.56;5107732;28;20065;-86
2021/12/25 07:39:47;;;;;;;24.08;17.23;;;;;;;0.77;98.76;100689.53;5110705;28;20023;-87
2021/12/25 07:42:13;;;;;;;24.17;17.20;;;;;;;0.75;98.91;100687.91;5110486;28;20440;-87
2021/12/25 07:44:38;;;;;;;23.25;16.55;;;;;;;0.70;98.71;100684.66;5110048;28;20032;-87
2021/12/25 07:47:14;;;;;;;23.08;17.17;;;;;;;0.71;99.27;100681.16;5092423;28;20032;-87
2021/12/25 07:49:39;;;;;;;24.00;17.45;;;;;;;0.69;98.81;100682.97;5109467;28;20032;-86
2021/12/25 07:52:19;;;;;;;21.35;16.25;;;;;;;0.73;99.58;100690.56;5103234;28;20467;-87
2021/12/25 07:54:44;;;;;;;24.23;17.60;;;;;;;0.69;99.49;100682.97;5089328;28;20043;-87
2021/12/25 07:57:10;;;;;;;24.38;16.75;;;;;;;0.70;98.87;100695.00;5110861;28;20085;-86
2021/12/25 07:59:35;;;;;;;25.95;17.42;;;;;;;0.60;98.57;100678.97;5089565;28;20032;-87
2021/12/25 08:02:01;;;;;;;21.98;17.05;;;;;;;0.65;99.20;100691.75;5109750;28;20111;-86
2021/12/25 08:04:26;;;;;;;22.45;15.60;;;;;;;0.61;98.98;100691.84;5108965;28;20031;-86
2021/12/25 08:07:08;;;;;;;18.90;14.82;;;;;;;0.57;98.66;100692.03;5109551;28;20024;-86
2021/12/25 08:09:35;;;;;;;18.38;13.25;;;;;;;0.52;98.26;100692.19;5103261;28;20059;-86
2021/12/25 08:12:02;;;;;;;18.50;14.25;;;;;;;0.51;98.22;100706.03;5107324;28;20483;-86
2021/12/25 08:14:28;;;;;;;17.63;13.57;;;;;;;0.54;98.51;100716.25;5108332;28;20031;-86
2021/12/25 08:16:59;;;;;;;20.23;13.60;;;;;;;0.50;98.38;100706.91;5110357;28;20019;-86
2021/12/25 08:19:24;;;;;;;19.63;13.27;;;;;;;0.48;98.91;100716.47;5106803;28;20027;-86
2021/12/25 08:21:50;;;;;;;17.48;13.50;;;;;;;0.46;98.46;100713.09;5091706;28;20574;-86
2021/12/25 08:24:16;;;;;;;17.05;13.57;;;;;;;0.46;98.67;100720.88;5109858;28;20031;-87
2021/12/25 08:26:42;;;;;;;16.30;12.45;;;;;;;0.48;98.54;100732.00;5108945;28;20080;-86
2021/12/25 08:29:08;;;;;;;16.80;12.20;;;;;;;0.45;97.62;100732.13;5099187;27;20037;-86
2021/12/25 08:31:34;;;;;;;18.63;13.23;;;;;;;0.42;97.73;100737.41;5111837;27;20106;-86
2021/12/25 08:33:59;;;;;;;17.88;12.50;;;;;;;0.38;97.49;100730.63;5111895;27;20563;-86
2021/12/25 08:36:25;;;;;;;17.40;12.90;;;;;;;0.34;97.59;100729.03;5106776;28;20491;-86
2021/12/25 08:38:50;;;;;;;16.33;12.20;;;;;;;0.36;97.39;100747.09;5089681;28;20020;-81
2021/12/25 08:41:15;;;;;;;17.25;13.13;;;;;;;0.36;97.79;100744.50;5078146;28;20024;-86
2021/12/25 08:43:47;;;;;;;18.63;13.18;;;;;;;0.27;97.23;100737.91;5108026;28;20548;-86
2021/12/25 08:46:18;;;;;;;16.67;13.23;;;;;;;0.32;97.76;100751.53;5070875;28;20264;-86
2021/12/25 08:48:44;;;;;;;18.20;13.32;;;;;;;0.27;97.74;100750.84;5090154;28;20019;-81
2021/12/25 08:51:10;;;;;;;17.63;13.45;;;;;;;0.30;97.58;100763.66;5109822;28;20031;-86
2021/12/25 08:53:36;;;;;;;17.10;12.75;;;;;;;0.26;97.09;100762.94;5109496;28;20019;-86
2021/12/25 08:56:02;;;;;;;19.17;12.77;;;;;;;0.22;97.00;100760.50;5109193;28;20442;-86
2021/12/25 08:58:30;;;;;;;17.38;12.90;;;;;;;0.20;97.40;100763.13;5109253;28;20479;-86
2021/12/25 09:01:01;;;;;;;15.63;12.73;;;;;;;0.22;96.87;100765.66;5109685;28;20361;-86
2021/12/25 09:03:27;;;;;;;16.45;12.80;;;;;;;0.22;97.91;100765.66;5088929;28;20024;-86
2021/12/25 09:05:58;;;;;;;17.80;12.85;;;;;;;0.21;96.92;100758.81;5089833;28;20028;-86
2021/12/25 09:08:24;;;;;;;17.33;12.75;;;;;;;0.14;96.98;100760.75;5088032;28;20020;-86
2021/12/25 09:10:50;;;;;;;16.00;12.73;;;;;;;0.16;97.15;100771.03;5071305;28;20051;-85
2021/12/25 09:13:15;;;;;;;19.15;12.50;;;;;;;0.14;96.75;100773.69;5091399;28;20023;-86
2021/12/25 09:15:47;;;;;;;16.85;12.50;;;;;;;0.11;97.06;100768.59;5109122;28;20028;-88
2021/12/25 09:18:12;;;;;;;19.27;12.25;;;;;;;0.08;96.75;100768.72;5110217;28;20062;-87
2021/12/25 09:20:38;;;;;;;16.48;13.20;;;;;;;0.07;96.37;100774.78;5110309;28;20103;-86
2021/12/25 09:23:03;;;;;;;18.85;12.50;;;;;;;0.01;96.79;100766.38;5113684;28;20039;-86
2021/12/25 09:25:29;;;;;;;16.95;12.15;;;;;;;0.05;96.86;100778.31;5111881;28;20019;-87
2021/12/25 09:27:54;;;;;;;18.10;12.75;;;;;;;0.02;96.29;100774.09;5112677;28;20023;-86
2021/12/25 09:30:21;;;;;;;14.95;11.48;;;;;;;0.01;96.45;100767.22;5122242;28;20364;-86
2021/12/25 09:33:00;;;;;;;16.30;11.90;;;;;;;0.08;96.41;100773.03;5110394;28;20447;-86
2021/12/25 09:35:25;;;;;;;17.10;12.38;;;;;;;-0.05;96.30;100759.63;5091288;28;20035;-87
2021/12/25 09:37:51;;;;;;;16.88;12.38;;;;;;;-0.02;96.25;100770.72;5110137;28;20027;-87
2021/12/25 09:40:16;;;;;;;14.80;12.20;;;;;;;0.02;96.67;100778.41;5113453;28;20031;-87
2021/12/25 09:42:44;;;;;;;14.23;11.57;;;;;;;-0.03;96.08;100781.09;5113721;28;20169;-87
2021/12/25 09:45:14;;;;;;;14.85;11.35;;;;;;;-0.04;96.03;100780.25;5113480;28;20083;-86
2021/12/25 09:47:40;;;;;;;15.48;12.20;;;;;;;-0.03;96.70;100786.28;5113435;28;20539;-87
2021/12/25 09:50:06;;;;;;;15.75;12.55;;;;;;;-0.06;95.62;100784.63;5113076;28;20474;-87
2021/12/25 09:52:32;;;;;;;15.27;11.30;;;;;;;-0.05;95.78;100799.25;5112063;28;20107;-87
2021/12/25 09:54:57;;;;;;;14.73;11.75;;;;;;;-0.13;95.49;100790.91;5113242;28;20112;-86
2021/12/25 09:57:23;;;;;;;16.92;11.80;;;;;;;-0.08;95.43;100801.94;5112386;28;20023;-88
2021/12/25 09:59:48;;;;;;;16.30;11.57;;;;;;;-0.08;95.17;100808.84;5112621;28;20032;-86
2021/12/25 10:02:15;;;;;;;16.27;12.00;;;;;;;-0.09;95.54;100813.19;5112897;28;20544;-88
2021/12/25 10:04:45;;;;;;;16.05;12.02;;;;;;;-0.12;95.06;100815.03;5093790;28;20016;-87
2021/12/25 10:07:30;;;;;;;15.27;12.32;;;;;;;-0.14;95.23;100809.91;5112863;28;20027;-87
2021/12/25 10:09:59;;;;;;;15.98;12.20;;;;;;;-0.15;95.44;100823.72;5112418;28;20399;-81
2021/12/25 10:12:40;;;;;;;15.00;12.15;;;;;;;-0.10;95.25;100821.00;5110563;28;20036;-81
2021/12/25 10:15:08;;;;;;;17.33;12.23;;;;;;;-0.17;95.07;100820.34;5092654;28;20032;-86
2021/12/25 10:17:34;;;;;;;16.17;12.25;;;;;;;-0.18;95.03;100818.63;5096716;28;20028;-86
2021/12/25 10:20:11;;;;;;;18.70;12.25;;;;;;;-0.11;94.81;100822.72;5112135;28;20093;-86
2021/12/25 10:22:52;;;;;;;16.83;11.85;;;;;;;-0.10;94.77;100821.84;5093700;28;20050;-86
2021/12/25 10:25:18;;;;;;;15.48;12.02;;;;;;;-0.15;94.72;100821.13;5112319;28;20027;-86
2021/12/25 10:27:50;;;;;;;19.55;12.45;;;;;;;-0.12;94.81;100828.78;5111249;28;20409;-85
2021/12/25 10:30:16;;;;;;;17.58;12.93;;;;;;;-0.14;95.49;100825.41;5112371;28;20027;-87
2021/12/25 10:32:41;;;;;;;15.48;12.25;;;;;;;-0.14;94.87;100819.38;5094100;28;20029;-86
2021/12/25 10:35:17;;;;;;;19.80;12.43;;;;;;;-0.17;95.17;100811.72;5112541;28;20023;-87
2021/12/25 10:37:44;;;;;;;15.48;11.73;;;;;;;-0.14;95.12;100825.41;5112496;28;20011;-86
2021/12/25 10:40:24;;;;;;;16.65;11.48;;;;;;;-0.13;94.55;100824.50;5112027;28;20023;-86
2021/12/25 10:42:50;;;;;;;13.43;10.85;;;;;;;-0.17;94.16;100822.91;5111764;28;20026;-87
2021/12/25 10:45:15;;;;;;;16.17;11.13;;;;;;;-0.20;94.35;100825.59;5112168;28;20094;-86
2021/12/25 10:47:41;;;;;;;14.52;11.43;;;;;;;-0.21;93.62;100823.06;5112214;28;20016;-86
2021/12/25 10:50:14;;;;;;;14.88;11.18;;;;;;;-0.22;93.74;100831.72;5111909;28;20038;-87
2021/12/25 10:52:47;;;;;;;14.95;10.68;;;;;;;-0.24;93.84;100836.94;5112479;28;20081;-86
2021/12/25 10:55:17;;;;;;;15.95;11.05;;;;;;;-0.26;94.13;100825.78;5111660;28;20031;-87
2021/12/25 10:57:49;;;;;;;16.63;10.30;;;;;;;-0.27;94.21;100818.06;5112266;28;20019;-87
2021/12/25 11:00:25;;;;;;;13.30;10.32;;;;;;;-0.29;93.23;100820.72;5112101;28;20102;-87
2021/12/25 11:03:05;;;;;;;13.77;9.85;;;;;;;-0.29;93.68;100820.72;5092657;28;20085;-87
2021/12/25 11:05:32;;;;;;;11.68;9.43;;;;;;;-0.31;93.96;100827.66;5111080;28;20024;-87
2021/12/25 11:08:07;;;;;;;11.07;8.48;;;;;;;-0.33;93.17;100822.53;5093247;28;20407;-86
2021/12/25 11:10:42;;;;;;;13.15;9.18;;;;;;;-0.32;93.21;100824.22;5093007;28;20446;-87
2021/12/25 11:13:20;;;;;;;9.52;8.52;;;;;;;-0.32;93.53;100825.97;5093686;28;20070;-86
2021/12/25 11:15:45;;;;;;;9.77;8.63;;;;;;;-0.40;93.76;100822.75;5111153;28;20027;-87
2021/12/25 11:18:15;;;;;;;13.05;8.98;;;;;;;-0.33;93.23;100834.63;5111600;28;20023;-87
2021/12/25 11:20:42;;;;;;;10.95;8.63;;;;;;;-0.42;93.23;100819.34;5093375;28;20506;-86
2021/12/25 11:23:10;;;;;;;11.63;8.23;;;;;;;-0.34;92.57;100838.09;5101836;27;20393;-86
2021/12/25 11:25:38;;;;;;;11.15;8.38;;;;;;;-0.44;92.98;100823.72;5096279;28;20433;-87
2021/12/25 11:28:07;;;;;;;13.02;8.38;;;;;;;-0.36;93.67;100824.38;5078725;28;20020;-86
2021/12/25 11:30:34;;;;;;;11.90;8.02;;;;;;;-0.38;92.87;100827.00;5096333;28;20032;-87
2021/12/25 11:33:00;;;;;;;10.95;8.20;;;;;;;-0.39;92.85;100817.56;5078241;28;20028;-86
2021/12/25 11:35:27;;;;;;;10.77;7.90;;;;;;;-0.36;93.35;100811.44;5097191;28;20024;-86
2021/12/25 11:37:55;;;;;;;11.13;7.93;;;;;;;-0.36;93.61;100808.88;5100439;28;20062;-86
2021/12/25 11:40:25;;;;;;;10.15;6.70;;;;;;;-0.40;92.67;100802.06;5081161;28;20480;-87
2021/12/25 11:42:56;;;;;;;9.85;7.63;;;;;;;-0.46;92.70;100792.75;5104752;28;20024;-87
2021/12/25 11:45:29;;;;;;;10.95;7.70;;;;;;;-0.39;92.76;100814.13;5080072;28;20112;-87
2021/12/25 11:48:10;;;;;;;10.02;6.57;;;;;;;-0.39;93.35;100811.53;5099672;28;20019;-87
2021/12/25 11:50:46;;;;;;;10.57;6.95;;;;;;;-0.44;93.29;100810.81;5098621;28;20031;-87
2021/12/25 11:53:44;;;;;;;9.93;6.70;;;;;;;-0.38;92.70;100832.16;5097748;28;20494;-87
2021/12/25 11:56:30;;;;;;;9.00;6.50;;;;;;;-0.38;93.32;100821.00;5079773;28;20019;-87
2021/12/25 11:59:08;;;;;;;8.50;6.10;;;;;;;-0.38;93.33;100821.00;5078297;28;20427;-87
2021/12/25 12:01:49;;;;;;;10.18;6.97;;;;;;;-0.37;93.80;100809.75;5100773;28;20019;-87
2021/12/25 12:04:24;;;;;;;8.32;5.97;;;;;;;-0.38;92.85;100805.47;5097315;28;20035;-88
2021/12/25 12:06:56;;;;;;;7.80;5.50;;;;;;;-0.35;93.43;100811.41;5097023;28;20028;-87
2021/12/25 12:09:53;;;;;;;7.60;5.60;;;;;;;-0.30;92.90;100813.00;5080932;28;20031;-86
2021/12/25 12:12:25;;;;;;;7.53;5.40;;;;;;;-0.32;92.96;100818.22;5078080;28;20457;-86
2021/12/25 12:15:07;;;;;;;8.02;5.00;;;;;;;-0.32;92.20;100808.72;5081002;28;20031;-87
2021/12/25 12:17:32;;;;;;;7.40;5.22;;;;;;;-0.36;92.31;100808.88;5080865;28;20016;-88
2021/12/25 12:20:02;;;;;;;6.38;4.53;;;;;;;-0.37;92.06;100804.59;5095971;28;20034;-87
2021/12/25 12:22:39;;;;;;;8.55;4.97;;;;;;;-0.29;92.74;100805.19;5096403;28;20135;-87
2021/12/25 12:27:52;;;;;;;6.10;4.47;;;;;;;-0.25;92.87;100787.84;5097027;28;20125;-87
2021/12/25 12:30:38;;;;;;;7.25;4.55;;;;;;;-0.21;92.80;100784.28;5095582;28;20027;-87